createdAt,value
2018-05-25T00:01:45.832Z,14.30
2018-05-25T00:04:12.126Z,14.30
2018-05-25T00:06:38.427Z,14.30
2018-05-25T00:09:04.740Z,14.30
2018-05-25T00:11:31.112Z,14.30
2018-05-25T00:13:58.118Z,14.30
2018-05-25T00:16:24.381Z,14.30
2018-05-25T00:18:51.669Z,14.40
2018-05-25T00:21:17.983Z,14.40
2018-05-25T00:23:44.306Z,14.30
2018-05-25T00:26:10.538Z,14.40
2018-05-25T00:28:36.858Z,14.40
2018-05-25T00:31:03.213Z,14.40
2018-05-25T00:33:29.495Z,14.40
2018-05-25T00:35:56.163Z,14.40
2018-05-25T00:38:22.843Z,14.40
2018-05-25T00:40:49.946Z,14.40
2018-05-25T00:43:16.953Z,14.40
2018-05-25T00:45:43.304Z,14.40
2018-05-25T00:48:10.443Z,14.40
2018-05-25T00:50:36.823Z,14.30
2018-05-25T00:53:03.879Z,14.40
2018-05-25T00:55:40.486Z,14.40
2018-05-25T00:58:06.894Z,14.40
2018-05-25T01:00:34.076Z,14.30
2018-05-25T01:03:01.312Z,14.40
2018-05-25T01:05:27.599Z,14.30
2018-05-25T01:07:53.856Z,14.30
2018-05-25T01:10:20.135Z,14.30
2018-05-25T01:12:46.439Z,14.40
2018-05-25T01:15:12.714Z,14.30
2018-05-25T01:17:39.070Z,14.30
2018-05-25T01:20:05.299Z,14.30
2018-05-25T01:22:31.688Z,14.30
2018-05-25T01:24:58.006Z,14.30
2018-05-25T01:27:25.008Z,14.30
2018-05-25T01:29:51.468Z,14.30
2018-05-25T01:32:25.277Z,14.30
2018-05-25T01:34:51.600Z,14.30
2018-05-25T01:37:17.869Z,14.30
2018-05-25T01:39:44.200Z,14.30
2018-05-25T01:42:10.426Z,14.30
2018-05-25T01:44:36.688Z,14.30
2018-05-25T01:47:04.065Z,14.20
2018-05-25T01:49:30.307Z,14.30
2018-05-25T01:51:57.638Z,14.20
2018-05-25T01:54:23.914Z,14.20
2018-05-25T01:56:50.262Z,14.20
2018-05-25T01:59:16.601Z,14.20
2018-05-25T02:01:42.926Z,14.30
2018-05-25T02:04:09.192Z,14.30
2018-05-25T02:06:35.436Z,14.30
2018-05-25T02:09:01.731Z,14.30
2018-05-25T02:11:28.764Z,14.20
2018-05-25T02:13:55.822Z,14.20
2018-05-25T02:16:22.824Z,14.20
2018-05-25T02:18:49.075Z,14.10
2018-05-25T02:21:15.366Z,14.20
2018-05-25T02:23:41.668Z,14.20
2018-05-25T02:26:07.916Z,14.10
2018-05-25T02:28:34.933Z,14.20
2018-05-25T02:31:01.189Z,14.10
2018-05-25T02:33:27.450Z,14.20
2018-05-25T02:35:53.774Z,14.20
2018-05-25T02:38:19.995Z,14.20
2018-05-25T02:40:46.989Z,14.20
2018-05-25T02:43:14.067Z,14.20
2018-05-25T02:45:41.415Z,14.20
2018-05-25T02:48:07.696Z,14.20
2018-05-25T02:50:33.933Z,14.20
2018-05-25T02:53:00.226Z,14.20
2018-05-25T02:55:26.460Z,14.20
2018-05-25T02:57:53.537Z,14.20
2018-05-25T03:00:19.829Z,14.20
2018-05-25T03:02:46.157Z,14.20
2018-05-25T03:05:12.439Z,14.20
2018-05-25T03:07:39.521Z,14.20
2018-05-25T03:10:05.828Z,14.20
2018-05-25T03:12:32.124Z,14.20
2018-05-25T03:14:58.385Z,14.20
2018-05-25T03:17:24.893Z,14.10
2018-05-25T03:19:51.166Z,14.20
2018-05-25T03:22:17.400Z,14.20
2018-05-25T03:24:43.712Z,14.20
2018-05-25T03:27:09.975Z,14.20
2018-05-25T03:29:36.206Z,14.20
2018-05-25T03:32:02.417Z,14.20
2018-05-25T03:34:29.430Z,14.20
2018-05-25T03:36:55.738Z,14.20
2018-05-25T03:39:22.109Z,14.20
2018-05-25T03:41:48.390Z,14.20
2018-05-25T03:44:14.729Z,14.20
2018-05-25T03:46:41.033Z,14.20
2018-05-25T03:49:07.272Z,14.20
2018-05-25T03:51:33.485Z,14.20
2018-05-25T03:54:00.472Z,14.20
2018-05-25T03:56:26.840Z,14.10
2018-05-25T03:59:05.376Z,14.10
2018-05-25T04:01:43.762Z,14.20
2018-05-25T04:04:10.024Z,14.20
2018-05-25T04:06:36.272Z,14.10
2018-05-25T04:09:15.459Z,14.20
2018-05-25T04:11:42.586Z,14.30
2018-05-25T04:14:08.870Z,14.30
2018-05-25T04:16:35.975Z,14.30
2018-05-25T04:19:02.343Z,14.40
2018-05-25T04:21:28.675Z,14.40
2018-05-25T04:24:05.690Z,14.40
2018-05-25T04:26:31.933Z,14.30
2018-05-25T04:28:58.192Z,14.40
2018-05-25T04:31:25.278Z,14.40
2018-05-25T04:33:51.512Z,14.40
2018-05-25T04:36:17.795Z,14.40
2018-05-25T04:38:44.157Z,14.50
2018-05-25T04:41:15.502Z,14.50
2018-05-25T04:43:41.850Z,14.50
2018-05-25T04:46:08.139Z,14.60
2018-05-25T04:48:34.336Z,14.60
2018-05-25T04:51:01.329Z,14.70
2018-05-25T04:53:28.370Z,14.70
2018-05-25T04:55:54.704Z,14.70
2018-05-25T04:58:21.205Z,14.70
2018-05-25T05:00:47.574Z,14.70
2018-05-25T05:03:13.888Z,14.70
2018-05-25T05:05:40.153Z,14.70
2018-05-25T05:08:06.536Z,14.80
2018-05-25T05:10:47.282Z,14.80
2018-05-25T05:13:13.538Z,14.90
2018-05-25T05:15:39.824Z,14.90
2018-05-25T05:18:06.140Z,15.00
2018-05-25T05:20:32.441Z,15.00
2018-05-25T05:22:58.817Z,15.10
2018-05-25T05:25:25.173Z,15.20
2018-05-25T05:30:44.297Z,15.30
2018-05-25T05:33:11.287Z,15.40
2018-05-25T05:35:37.675Z,15.40
2018-05-25T05:38:03.944Z,15.50
2018-05-25T05:40:30.961Z,15.60
2018-05-25T05:42:57.241Z,15.60
2018-05-25T05:45:44.847Z,15.60
2018-05-25T05:48:11.102Z,15.60
2018-05-25T05:50:37.389Z,15.60
2018-05-25T05:53:04.274Z,15.70
2018-05-25T05:55:30.560Z,15.60
2018-05-25T05:57:56.833Z,15.70
2018-05-25T06:00:23.658Z,15.70
2018-05-25T06:02:50.090Z,15.80
2018-05-25T06:05:16.352Z,15.90
2018-05-25T06:07:43.300Z,16.20
2018-05-25T06:10:09.545Z,16.10
2018-05-25T06:12:36.542Z,16.50
2018-05-25T06:15:02.866Z,16.40
2018-05-25T06:17:29.170Z,16.70
2018-05-25T06:19:55.498Z,16.90
2018-05-25T06:22:21.759Z,17.00
2018-05-25T06:24:48.088Z,17.00
2018-05-25T06:27:24.884Z,17.00
2018-05-25T06:29:51.195Z,17.00
2018-05-25T06:32:17.475Z,17.00
2018-05-25T06:34:43.757Z,16.90
2018-05-25T06:37:10.031Z,16.80
2018-05-25T06:39:36.301Z,16.80
2018-05-25T06:42:02.608Z,16.80
2018-05-25T06:44:28.849Z,16.80
2018-05-25T06:46:55.071Z,16.70
2018-05-25T06:49:21.687Z,16.70
2018-05-25T06:51:48.842Z,16.60
2018-05-25T06:54:15.922Z,16.60
2018-05-25T06:56:42.210Z,16.50
2018-05-25T06:59:08.468Z,16.70
2018-05-25T07:01:34.748Z,16.70
2018-05-25T07:04:03.042Z,16.90
2018-05-25T07:06:29.314Z,16.90
2018-05-25T07:08:55.548Z,16.90
2018-05-25T07:11:22.194Z,17.10
2018-05-25T07:13:48.670Z,17.20
2018-05-25T07:16:15.183Z,17.20
2018-05-25T07:18:41.879Z,17.40
2018-05-25T07:21:09.141Z,17.50
2018-05-25T07:23:35.455Z,17.40
2018-05-25T07:26:02.095Z,17.60
2018-05-25T07:28:28.475Z,17.80
2018-05-25T07:30:54.838Z,17.90
2018-05-25T07:33:21.399Z,18.10
2018-05-25T07:35:48.961Z,18.30
2018-05-25T07:38:16.124Z,18.30
2018-05-25T07:40:43.523Z,18.30
2018-05-25T07:43:20.964Z,18.40
2018-05-25T07:45:47.363Z,18.30
2018-05-25T07:48:14.498Z,18.40
2018-05-25T07:50:40.877Z,18.30
2018-05-25T07:53:12.078Z,18.30
2018-05-25T07:55:38.381Z,18.30
2018-05-25T07:58:25.205Z,18.60
2018-05-25T08:00:52.197Z,18.80
2018-05-25T08:03:32.188Z,18.70
2018-05-25T08:06:08.694Z,18.70
2018-05-25T08:08:38.843Z,18.70
2018-05-25T08:11:05.829Z,18.70
2018-05-25T08:13:32.129Z,18.70
2018-05-25T08:15:58.360Z,18.50
2018-05-25T08:18:24.634Z,18.20
2018-05-25T08:20:51.668Z,17.90
2018-05-25T08:23:29.553Z,17.90
2018-05-25T08:25:55.860Z,17.90
2018-05-25T08:28:22.120Z,17.80
2018-05-25T08:30:48.412Z,17.90
2018-05-25T08:33:19.171Z,17.90
2018-05-25T08:35:46.180Z,17.90
2018-05-25T08:38:13.189Z,17.90
2018-05-25T08:40:40.288Z,17.80
2018-05-25T08:43:06.528Z,17.80
2018-05-25T08:45:34.029Z,17.70
2018-05-25T08:48:00.415Z,17.60
2018-05-25T08:50:27.417Z,17.60
2018-05-25T08:52:53.689Z,17.50
2018-05-25T08:55:19.980Z,17.50
2018-05-25T08:57:46.279Z,17.50
2018-05-25T09:00:12.514Z,17.50
2018-05-25T09:02:38.954Z,17.40
2018-05-25T09:05:05.288Z,17.40
2018-05-25T09:07:31.546Z,17.30
2018-05-25T09:09:57.782Z,17.10
2018-05-25T09:12:24.111Z,17.00
2018-05-25T09:14:50.331Z,16.90
2018-05-25T09:17:16.789Z,16.90
2018-05-25T09:19:43.161Z,16.80
2018-05-25T09:22:09.443Z,16.80
2018-05-25T09:24:35.658Z,16.80
2018-05-25T09:27:02.631Z,16.80
2018-05-25T09:29:28.955Z,16.80
2018-05-25T09:31:56.524Z,16.80
2018-05-25T09:34:22.906Z,16.80
2018-05-25T09:36:49.180Z,16.90
2018-05-25T09:39:15.498Z,16.90
2018-05-25T09:41:48.127Z,17.00
2018-05-25T09:44:20.784Z,17.10
2018-05-25T09:46:47.159Z,17.10
2018-05-25T09:49:13.581Z,17.20
2018-05-25T09:51:41.043Z,17.30
2018-05-25T09:54:10.577Z,17.30
2018-05-25T09:56:36.855Z,17.40
2018-05-25T09:59:03.873Z,17.70
2018-05-25T10:01:30.167Z,17.60
2018-05-25T10:04:02.656Z,17.80
2018-05-25T10:06:41.588Z,17.70
2018-05-25T10:09:08.619Z,17.70
2018-05-25T10:11:35.007Z,17.70
2018-05-25T10:14:02.094Z,17.90
2018-05-25T10:16:28.359Z,17.90
2018-05-25T10:18:54.612Z,18.00
2018-05-25T10:21:35.715Z,18.20
2018-05-25T10:24:01.999Z,18.40
2018-05-25T10:26:28.288Z,18.50
2018-05-25T10:28:54.702Z,18.40
2018-05-25T10:31:21.141Z,18.40
2018-05-25T10:33:47.436Z,18.40
2018-05-25T10:36:20.974Z,18.40
2018-05-25T10:38:47.313Z,18.50
2018-05-25T10:41:13.724Z,18.60
2018-05-25T10:43:40.351Z,18.70
2018-05-25T10:46:06.713Z,18.80
2018-05-25T10:48:33.023Z,18.70
2018-05-25T10:50:59.474Z,18.70
2018-05-25T10:53:25.858Z,18.50
2018-05-25T10:55:52.287Z,18.30
2018-05-25T10:58:19.225Z,18.30
2018-05-25T11:00:45.554Z,18.30
2018-05-25T11:03:20.047Z,18.40
2018-05-25T11:05:47.098Z,18.50
2018-05-25T11:08:19.545Z,18.50
2018-05-25T11:10:46.805Z,18.60
2018-05-25T11:13:13.178Z,18.90
2018-05-25T11:15:40.192Z,19.10
2018-05-25T11:18:09.075Z,19.30
2018-05-25T11:20:36.123Z,19.60
2018-05-25T11:23:02.418Z,19.60
2018-05-25T11:25:28.610Z,19.70
2018-05-25T11:27:54.894Z,19.60
2018-05-25T11:30:21.358Z,19.70
2018-05-25T11:32:48.674Z,19.70
2018-05-25T11:35:15.108Z,19.70
2018-05-25T11:37:42.175Z,19.70
2018-05-25T11:40:09.190Z,19.80
2018-05-25T11:42:35.480Z,19.70
2018-05-25T11:45:09.255Z,19.80
2018-05-25T11:47:35.499Z,20.10
2018-05-25T11:50:05.314Z,20.20
2018-05-25T11:52:31.572Z,20.20
2018-05-25T11:54:58.002Z,20.20
2018-05-25T11:57:24.264Z,20.20
2018-05-25T11:59:50.796Z,20.20
2018-05-25T12:02:17.022Z,20.20
2018-05-25T12:04:49.626Z,20.20
2018-05-25T12:07:20.068Z,20.30
2018-05-25T12:09:46.420Z,20.40
2018-05-25T12:12:12.767Z,20.40
2018-05-25T12:14:39.136Z,20.40
2018-05-25T12:17:05.517Z,20.40
2018-05-25T12:19:31.811Z,20.40
2018-05-25T12:21:58.131Z,20.50
2018-05-25T12:24:24.431Z,20.50
2018-05-25T12:26:52.612Z,20.70
2018-05-25T12:29:18.898Z,20.70
2018-05-25T12:31:46.189Z,20.70
2018-05-25T12:34:20.641Z,20.70
2018-05-25T12:36:51.942Z,20.80
2018-05-25T12:39:18.307Z,20.80
2018-05-25T12:41:44.596Z,20.70
2018-05-25T12:44:11.618Z,20.50
2018-05-25T12:46:44.818Z,20.50
2018-05-25T12:49:11.862Z,20.30
2018-05-25T12:51:38.193Z,20.30
2018-05-25T12:54:04.454Z,20.20
2018-05-25T12:56:30.679Z,20.20
2018-05-25T12:58:57.008Z,20.20
2018-05-25T13:01:26.398Z,20.20
2018-05-25T13:03:52.780Z,20.10
2018-05-25T13:06:19.369Z,20.10
2018-05-25T13:08:45.797Z,20.10
2018-05-25T13:11:13.149Z,20.10
2018-05-25T13:13:39.457Z,20.10
2018-05-25T13:16:07.639Z,20.20
2018-05-25T13:18:34.640Z,20.30
2018-05-25T13:21:01.940Z,20.30
2018-05-25T13:23:28.367Z,20.50
2018-05-25T13:25:54.659Z,20.60
2018-05-25T13:28:21.793Z,21.20
2018-05-25T13:30:48.057Z,21.20
2018-05-25T13:33:15.176Z,21.70
2018-05-25T13:35:41.445Z,21.70
2018-05-25T13:38:08.472Z,21.90
2018-05-25T13:40:41.186Z,21.90
2018-05-25T13:43:07.461Z,22.10
2018-05-25T13:45:34.528Z,22.50
2018-05-25T13:48:06.194Z,22.40
2018-05-25T13:50:34.445Z,22.60
2018-05-25T13:53:00.796Z,22.80
2018-05-25T13:55:27.210Z,22.80
2018-05-25T13:57:57.775Z,23.00
2018-05-25T14:00:24.219Z,23.00
2018-05-25T14:05:45.544Z,23.20
2018-05-25T14:08:11.922Z,23.30
2018-05-25T14:10:38.286Z,23.20
2018-05-25T14:13:04.542Z,23.40
2018-05-25T14:15:31.540Z,22.90
2018-05-25T14:17:57.764Z,22.90
2018-05-25T14:20:24.039Z,22.80
2018-05-25T14:22:50.324Z,22.60
2018-05-25T14:25:16.723Z,22.50
2018-05-25T14:27:43.012Z,22.50
2018-05-25T14:30:10.151Z,22.20
2018-05-25T14:32:37.482Z,22.20
2018-05-25T14:35:03.813Z,22.10
2018-05-25T14:37:30.107Z,22.00
2018-05-25T14:39:56.420Z,21.90
2018-05-25T14:42:33.059Z,21.70
2018-05-25T14:45:02.078Z,21.60
2018-05-25T14:47:28.482Z,21.60
2018-05-25T14:49:54.745Z,21.60
2018-05-25T14:52:21.931Z,21.50
2018-05-25T14:54:48.356Z,21.50
2018-05-25T14:57:15.318Z,21.50
2018-05-25T14:59:45.698Z,21.40
2018-05-25T15:02:19.565Z,21.40
2018-05-25T15:04:46.682Z,21.20
2018-05-25T15:07:13.005Z,21.20
2018-05-25T15:09:41.353Z,21.20
2018-05-25T15:12:11.452Z,21.10
2018-05-25T15:14:37.779Z,21.30
2018-05-25T15:17:04.781Z,21.60
2018-05-25T15:19:31.065Z,21.60
2018-05-25T15:21:57.382Z,21.70
2018-05-25T15:24:24.375Z,21.80
2018-05-25T15:26:56.614Z,21.80
2018-05-25T15:29:22.994Z,21.90
2018-05-25T15:31:49.419Z,21.80
2018-05-25T15:34:15.760Z,21.70
2018-05-25T15:36:42.796Z,21.70
2018-05-25T15:39:09.154Z,21.70
2018-05-25T15:41:35.435Z,21.80
2018-05-25T15:44:01.716Z,21.80
2018-05-25T15:46:28.112Z,21.80
2018-05-25T15:48:55.249Z,21.60
2018-05-25T15:51:21.549Z,21.60
2018-05-25T15:53:47.941Z,21.50
2018-05-25T15:56:14.963Z,21.60
2018-05-25T15:58:41.218Z,21.50
2018-05-25T16:01:09.000Z,21.50
2018-05-25T16:03:35.399Z,21.50
2018-05-25T16:06:01.680Z,21.50
2018-05-25T16:08:28.082Z,21.60
2018-05-25T16:10:54.427Z,21.80
2018-05-25T16:13:20.727Z,21.90
2018-05-25T16:15:47.025Z,22.00
2018-05-25T16:18:13.423Z,22.20
2018-05-25T16:20:40.493Z,22.30
2018-05-25T16:23:07.559Z,22.30
2018-05-25T16:25:34.828Z,22.40
2018-05-25T16:28:01.267Z,22.40
2018-05-25T16:30:28.334Z,22.40
2018-05-25T16:32:54.648Z,22.40
2018-05-25T16:35:21.021Z,22.30
2018-05-25T16:37:47.352Z,22.20
2018-05-25T16:40:14.405Z,21.90
2018-05-25T16:42:40.712Z,21.90
2018-05-25T16:45:07.026Z,21.80
2018-05-25T16:47:33.404Z,21.70
2018-05-25T16:49:59.665Z,21.50
2018-05-25T16:52:25.974Z,21.40
2018-05-25T16:54:52.281Z,21.30
2018-05-25T16:57:18.513Z,21.20
2018-05-25T16:59:45.516Z,21.00
2018-05-25T17:02:11.822Z,21.00
2018-05-25T17:04:38.073Z,20.90
2018-05-25T17:07:04.290Z,20.90
2018-05-25T17:09:31.303Z,20.80
2018-05-25T17:11:57.612Z,20.70
2018-05-25T17:14:23.906Z,20.80
2018-05-25T17:16:50.281Z,20.70
2018-05-25T17:19:17.305Z,20.90
2018-05-25T17:21:43.559Z,20.80
2018-05-25T17:24:09.787Z,20.90
2018-05-25T17:26:36.140Z,20.90
2018-05-25T17:29:02.447Z,20.90
2018-05-25T17:31:28.706Z,20.90
2018-05-25T17:33:54.999Z,20.80
2018-05-25T17:36:22.101Z,20.60
2018-05-25T17:38:48.355Z,20.60
2018-05-25T17:41:15.624Z,20.70
2018-05-25T17:43:41.960Z,20.70
2018-05-25T17:46:08.325Z,20.70
2018-05-25T17:48:34.671Z,20.60
2018-05-25T17:51:01.000Z,20.60
2018-05-25T17:53:27.288Z,20.40
2018-05-25T17:55:54.334Z,20.20
2018-05-25T17:58:20.903Z,20.20
2018-05-25T18:00:47.288Z,20.10
2018-05-25T18:03:13.819Z,20.00
2018-05-25T18:05:40.119Z,20.00
2018-05-25T18:08:08.214Z,19.80
2018-05-25T18:10:35.294Z,19.70
2018-05-25T18:13:01.593Z,19.70
2018-05-25T18:15:27.898Z,19.60
2018-05-25T18:17:54.277Z,19.60
2018-05-25T18:20:20.750Z,19.50
2018-05-25T18:22:47.061Z,19.50
2018-05-25T18:25:13.346Z,19.30
2018-05-25T18:27:39.653Z,19.20
2018-05-25T18:30:05.938Z,19.20
2018-05-25T18:32:32.937Z,19.00
2018-05-25T18:34:59.284Z,19.00
2018-05-25T18:37:25.655Z,18.90
2018-05-25T18:39:52.715Z,18.80
2018-05-25T18:42:19.196Z,18.70
2018-05-25T18:44:46.377Z,18.60
2018-05-25T18:47:12.633Z,18.60
2018-05-25T18:49:38.947Z,18.50
2018-05-25T18:52:05.248Z,18.50
2018-05-25T18:54:33.444Z,18.40
2018-05-25T18:57:00.450Z,18.20
2018-05-25T18:59:26.750Z,18.20
2018-05-25T19:01:53.138Z,18.20
2018-05-25T19:04:19.740Z,18.10
2018-05-25T19:06:46.237Z,18.00
2018-05-25T19:09:12.554Z,18.00
2018-05-25T19:11:38.824Z,18.00
2018-05-25T19:14:06.110Z,17.90
2018-05-25T19:16:32.426Z,17.90
2018-05-25T19:18:59.570Z,17.70
2018-05-25T19:21:25.853Z,17.70
2018-05-25T19:23:52.160Z,17.60
2018-05-25T19:26:18.528Z,17.50
2018-05-25T19:28:45.631Z,17.30
2018-05-25T19:31:12.724Z,17.20
2018-05-25T19:33:38.980Z,17.20
2018-05-25T19:36:06.031Z,17.10
2018-05-25T19:38:33.075Z,17.10
2018-05-25T19:40:59.422Z,17.00
2018-05-25T19:43:25.669Z,17.00
2018-05-25T19:45:52.011Z,16.90
2018-05-25T19:48:18.496Z,16.80
2018-05-25T19:50:44.825Z,16.70
2018-05-25T19:53:11.088Z,16.70
2018-05-25T19:55:38.941Z,16.60
2018-05-25T19:58:05.220Z,16.60
2018-05-25T20:00:32.261Z,16.60
2018-05-25T20:02:58.552Z,16.50
2018-05-25T20:05:25.761Z,16.40
2018-05-25T20:07:52.215Z,16.40
2018-05-25T20:10:18.576Z,16.40
2018-05-25T20:12:45.973Z,16.30
2018-05-25T20:15:22.556Z,16.20
2018-05-25T20:17:48.888Z,16.10
2018-05-25T20:20:19.380Z,16.10
2018-05-25T20:22:45.649Z,16.00
2018-05-25T20:25:19.675Z,16.00
2018-05-25T20:27:46.742Z,16.10
2018-05-25T20:30:12.994Z,16.10
2018-05-25T20:32:40.067Z,16.00
2018-05-25T20:35:07.078Z,15.90
2018-05-25T20:37:33.339Z,15.90
2018-05-25T20:39:59.645Z,15.80
2018-05-25T20:42:25.941Z,15.90
2018-05-25T20:44:53.000Z,16.00
2018-05-25T20:47:20.172Z,16.00
2018-05-25T20:49:46.522Z,15.90
2018-05-25T20:52:12.765Z,15.90
2018-05-25T20:54:39.186Z,15.80
2018-05-25T20:57:05.386Z,15.70
2018-05-25T20:59:31.642Z,15.60
2018-05-25T21:01:58.688Z,15.50
2018-05-25T21:04:24.948Z,15.50
2018-05-25T21:06:51.527Z,15.50
2018-05-25T21:09:18.613Z,15.40
2018-05-25T21:11:45.009Z,15.30
2018-05-25T21:14:11.305Z,15.30
2018-05-25T21:16:37.605Z,15.30
2018-05-25T21:19:03.858Z,15.20
2018-05-25T21:21:30.906Z,15.20
2018-05-25T21:23:57.179Z,15.20
2018-05-25T21:26:23.544Z,15.20
2018-05-25T21:28:49.972Z,15.20
2018-05-25T21:31:16.279Z,15.20
2018-05-25T21:33:42.537Z,15.20
2018-05-25T21:36:09.575Z,15.20
2018-05-25T21:38:35.827Z,15.20
2018-05-25T21:41:02.117Z,15.10
2018-05-25T21:43:28.416Z,15.10
2018-05-25T21:45:54.698Z,15.00
2018-05-25T21:48:20.960Z,15.00
2018-05-25T21:50:47.219Z,15.00
2018-05-25T21:53:13.468Z,15.10
2018-05-25T21:55:40.671Z,15.10
2018-05-25T21:58:07.023Z,15.10
2018-05-25T22:00:33.442Z,15.10
2018-05-25T22:03:00.518Z,14.90
2018-05-25T22:05:26.805Z,15.00
2018-05-25T22:07:53.155Z,14.90
2018-05-25T22:10:19.527Z,14.80
2018-05-25T22:12:46.567Z,14.80
2018-05-25T22:15:12.914Z,14.80
2018-05-25T22:17:39.207Z,14.90
2018-05-25T22:20:05.530Z,15.00
2018-05-25T22:22:32.646Z,14.90
2018-05-25T22:24:59.039Z,14.90
2018-05-25T22:27:25.323Z,14.80
2018-05-25T22:29:52.383Z,14.60
2018-05-25T22:32:19.414Z,14.50
2018-05-25T22:34:45.733Z,14.40
2018-05-25T22:37:12.731Z,14.40
2018-05-25T22:39:38.964Z,14.40
2018-05-25T22:42:05.012Z,14.40
2018-05-25T22:44:43.642Z,14.30
2018-05-25T22:47:22.069Z,14.30
2018-05-25T22:50:00.573Z,14.30
2018-05-25T22:52:33.410Z,14.40
2018-05-25T22:54:59.719Z,14.30
2018-05-25T22:57:25.956Z,14.30
2018-05-25T22:59:53.212Z,14.30
2018-05-25T23:02:19.492Z,14.30
2018-05-25T23:04:45.809Z,14.30
2018-05-25T23:07:12.154Z,14.40
2018-05-25T23:09:38.471Z,14.30
2018-05-25T23:12:05.524Z,14.40
2018-05-25T23:14:31.806Z,14.40
2018-05-25T23:16:58.058Z,14.30
2018-05-25T23:19:24.325Z,14.30
2018-05-25T23:21:50.645Z,14.30
2018-05-25T23:24:16.900Z,14.20
2018-05-25T23:26:43.149Z,14.10
2018-05-25T23:29:09.467Z,14.00
2018-05-25T23:31:35.701Z,14.00
2018-05-25T23:34:02.004Z,13.90
2018-05-25T23:36:28.943Z,14.00
2018-05-25T23:38:55.187Z,14.00
2018-05-25T23:41:21.481Z,14.00
2018-05-25T23:43:47.789Z,13.90
2018-05-25T23:46:14.815Z,13.90
2018-05-25T23:48:41.050Z,13.90
2018-05-25T23:51:07.242Z,13.90
2018-05-25T23:53:34.250Z,14.00
2018-05-25T23:56:00.521Z,14.00
2018-05-25T23:58:26.784Z,13.80
